This is the latest recevied weather packets stored in our database for station/object N9MXT-13. If no packets are shown the sender has not sent any weather packets the latest 10 day(s).
| Time | Temp. | Humidity | Pressure | Rain* | Wind** | Luminosity | Snow |
|---|---|---|---|---|---|---|---|
| 1777836901 | 17.22° C | 55% | 1008.1 hPa | 0 mm | - | - | - |
| 1777835100 | 16.67° C | 57% | 1008.5 hPa | 0 mm | - | - | - |
| 1777834803 | 16.11° C | 56% | 1008.4 hPa | 0 mm | - | - | - |
| 1777834501 | 16.11° C | 56% | 1008.4 hPa | 0 mm | - | - | - |
| 1777834200 | 16.11° C | 56% | 1008.4 hPa | 0 mm | - | - | - |
| 1777833301 | 15.56° C | 55% | 1008.7 hPa | 0 mm | - | - | - |
| 1777831204 | 15° C | 57% | 1009.4 hPa | 0 mm | - | - | - |
| 1777830900 | 14.44° C | 58% | 1009.5 hPa | 0 mm | - | - | - |
| 1777827000 | 12.22° C | 68% | 1011.3 hPa | 0 mm | - | - | - |
| 1777815299 | 9.44° C | 67% | 1013.5 hPa | 0 mm | - | - | - |
| 1777812899 | 8.89° C | 67% | 1013.5 hPa | 0 mm | - | - | - |
| 1777811100 | 8.89° C | 67% | 1013.4 hPa | 0 mm | - | - | - |
| 1777809602 | 8.33° C | 67% | 1013.6 hPa | 0 mm | - | - | - |
| 1777808399 | 7.78° C | 68% | 1013.5 hPa | 0 mm | - | - | - |
| 1777807199 | 7.78° C | 67% | 1013.1 hPa | 0 mm | - | - | - |
| 1777806600 | 7.78° C | 67% | 1013.1 hPa | 0 mm | - | - | - |
| 1777806299 | 7.78° C | 67% | 1013.1 hPa | 0 mm | - | - | - |
| 1777805700 | 7.78° C | 67% | 1013.1 hPa | 0 mm | - | - | - |
| 1777804799 | 7.22° C | 67% | 1013.3 hPa | 0 mm | - | - | - |
| 1777804499 | 7.22° C | 67% | 1013.2 hPa | 0 mm | - | - | - |
| 1777802999 | 7.78° C | 65% | 1013.4 hPa | 0 mm | - | - | - |
| 1777801199 | 7.22° C | 64% | 1013.6 hPa | 0 mm | - | - | - |
| 1777796400 | 8.33° C | 58% | 1014.1 hPa | 0 mm | - | - | - |
| 1777792200 | 8.33° C | 56% | 1014.2 hPa | 0 mm | - | - | - |
| 1777791899 | 8.33° C | 56% | 1014.3 hPa | 0 mm | - | - | - |
* Rain latest hour (hover to see other rain measurements)
** Current wind speed in m/s (hover to see current wind gust speed)